createdAt,value
2018-08-10T00:01:29.596Z,81.50
2018-08-10T00:03:58.220Z,82.43
2018-08-10T00:06:27.114Z,82.16
2018-08-10T00:08:55.680Z,82.35
2018-08-10T00:11:24.904Z,81.79
2018-08-10T00:13:53.450Z,82.16
2018-08-10T00:16:22.072Z,82.55
2018-08-10T00:18:50.698Z,82.76
2018-08-10T00:21:19.212Z,83.68
2018-08-10T00:23:47.841Z,83.09
2018-08-10T00:26:16.384Z,84.29
2018-08-10T00:28:44.981Z,83.72
2018-08-10T00:31:13.930Z,83.10
2018-08-10T00:33:42.644Z,83.87
2018-08-10T00:36:11.230Z,82.93
2018-08-10T00:38:40.191Z,82.73
2018-08-10T00:41:08.845Z,81.89
2018-08-10T00:43:37.418Z,81.58
2018-08-10T00:46:06.247Z,79.64
2018-08-10T00:48:34.883Z,80.07
2018-08-10T00:51:03.822Z,79.23
2018-08-10T00:53:32.456Z,79.92
2018-08-10T00:56:00.951Z,79.98
2018-08-10T00:58:29.539Z,78.97
2018-08-10T01:00:58.161Z,78.71
2018-08-10T01:03:26.773Z,78.13
2018-08-10T01:05:55.288Z,78.62
2018-08-10T01:08:23.816Z,78.46
2018-08-10T01:10:52.303Z,78.95
2018-08-10T01:13:21.729Z,79.37
2018-08-10T01:15:50.562Z,79.67
2018-08-10T01:18:19.081Z,80.11
2018-08-10T01:20:47.745Z,79.59
2018-08-10T01:23:16.755Z,79.90
2018-08-10T01:25:45.249Z,79.71
2018-08-10T01:28:13.835Z,80.05
2018-08-10T01:30:42.411Z,79.47
2018-08-10T01:33:10.920Z,79.60
2018-08-10T01:35:39.781Z,79.59
2018-08-10T01:38:08.400Z,80.31
2018-08-10T01:40:36.962Z,79.86
2018-08-10T01:43:05.532Z,79.38
2018-08-10T01:45:34.083Z,79.51
2018-08-10T01:48:02.863Z,79.13
2018-08-10T01:50:31.397Z,79.59
2018-08-10T01:52:59.976Z,80.56
2018-08-10T01:55:28.522Z,79.54
2018-08-10T01:57:57.145Z,79.36
2018-08-10T02:00:25.641Z,80.03
2018-08-10T02:02:54.363Z,78.98
2018-08-10T02:05:23.064Z,77.98
2018-08-10T02:07:51.602Z,78.92
2018-08-10T02:10:20.488Z,79.03
2018-08-10T02:12:53.884Z,78.53
2018-08-10T02:15:22.590Z,78.64
2018-08-10T02:17:51.116Z,78.38
2018-08-10T02:20:22.006Z,78.69
2018-08-10T02:22:50.535Z,78.13
2018-08-10T02:25:20.700Z,78.10
2018-08-10T02:27:50.218Z,78.60
2018-08-10T02:30:20.116Z,78.49
2018-08-10T02:32:49.713Z,78.07
2018-08-10T02:35:18.272Z,78.38
2018-08-10T02:37:46.982Z,77.30
2018-08-10T02:40:18.159Z,78.51
2018-08-10T02:42:47.944Z,79.71
2018-08-10T02:45:17.117Z,79.60
2018-08-10T02:47:46.366Z,80.87
2018-08-10T02:50:15.092Z,82.42
2018-08-10T02:52:43.647Z,83.24
2018-08-10T02:55:12.595Z,82.49
2018-08-10T02:57:41.505Z,82.57
2018-08-10T03:00:13.333Z,82.81
2018-08-10T03:02:42.364Z,82.81
2018-08-10T03:05:11.424Z,82.04
2018-08-10T03:07:40.421Z,82.86
2018-08-10T03:10:10.637Z,83.05
2018-08-10T03:12:39.421Z,82.31
2018-08-10T03:15:12.149Z,82.03
2018-08-10T03:17:40.709Z,82.50
2018-08-10T03:20:09.484Z,82.05
2018-08-10T03:22:38.070Z,80.75
2018-08-10T03:25:07.297Z,80.62
2018-08-10T03:27:35.886Z,81.16
2018-08-10T03:30:05.607Z,79.59
2018-08-10T03:32:34.084Z,80.84
2018-08-10T03:35:02.914Z,79.74
2018-08-10T03:37:31.444Z,79.63
2018-08-10T03:39:59.941Z,79.24
2018-08-10T03:42:28.888Z,80.05
2018-08-10T03:44:57.681Z,79.47
2018-08-10T03:47:26.389Z,79.60
2018-08-10T03:49:55.025Z,79.10
2018-08-10T03:52:23.634Z,78.93
2018-08-10T03:54:52.204Z,78.31
2018-08-10T03:57:21.046Z,78.53
2018-08-10T03:59:49.524Z,78.40
2018-08-10T04:02:18.142Z,79.79
2018-08-10T04:04:46.882Z,78.37
2018-08-10T04:07:15.501Z,78.65
2018-08-10T04:09:44.085Z,79.50
2018-08-10T04:12:12.629Z,78.44
2018-08-10T04:14:41.322Z,78.05
2018-08-10T04:17:16.676Z,78.22
2018-08-10T04:19:45.247Z,78.27
2018-08-10T04:22:14.140Z,77.98
2018-08-10T04:24:42.970Z,78.16
2018-08-10T04:27:11.545Z,77.30
2018-08-10T04:29:40.228Z,77.52
2018-08-10T04:32:09.286Z,77.00
2018-08-10T04:34:37.878Z,76.51
2018-08-10T04:37:06.786Z,76.93
2018-08-10T04:39:35.355Z,76.21
2018-08-10T04:42:03.860Z,77.24
2018-08-10T04:44:32.864Z,77.71
2018-08-10T04:47:01.458Z,76.27
2018-08-10T04:49:30.017Z,76.65
2018-08-10T04:51:58.949Z,77.15
2018-08-10T04:54:27.841Z,76.74
2018-08-10T04:56:56.446Z,76.33
2018-08-10T04:59:25.014Z,77.04
2018-08-10T05:01:53.704Z,76.56
2018-08-10T05:04:22.952Z,75.90
2018-08-10T05:06:51.625Z,76.25
2018-08-10T05:09:20.141Z,75.91
2018-08-10T05:11:48.868Z,76.45
2018-08-10T05:14:17.346Z,75.76
2018-08-10T05:16:45.909Z,76.49
2018-08-10T05:19:14.416Z,76.39
2018-08-10T05:21:42.936Z,77.25
2018-08-10T05:24:11.484Z,76.10
2018-08-10T05:26:40.033Z,76.40
2018-08-10T05:29:08.586Z,76.66
2018-08-10T05:31:37.155Z,76.18
2018-08-10T05:34:05.693Z,77.10
2018-08-10T05:36:34.253Z,76.27
2018-08-10T05:39:02.905Z,76.17
2018-08-10T05:41:31.834Z,76.30
2018-08-10T05:44:00.403Z,76.00
2018-08-10T05:46:29.306Z,75.94
2018-08-10T05:48:57.845Z,76.29
2018-08-10T05:51:26.481Z,76.00
2018-08-10T05:53:55.010Z,75.72
2018-08-10T05:56:23.535Z,76.25
2018-08-10T05:58:52.068Z,75.65
2018-08-10T06:01:20.588Z,75.66
2018-08-10T06:03:49.130Z,75.80
2018-08-10T06:06:17.681Z,74.63
2018-08-10T06:08:46.239Z,74.32
2018-08-10T06:11:14.853Z,73.89
2018-08-10T06:13:43.378Z,74.50
2018-08-10T06:16:11.992Z,74.40
2018-08-10T06:18:40.620Z,73.83
2018-08-10T06:21:09.171Z,73.37
2018-08-10T06:23:37.777Z,73.62
2018-08-10T06:26:06.347Z,72.83
2018-08-10T06:28:34.929Z,72.42
2018-08-10T06:31:04.225Z,72.18
2018-08-10T06:33:32.762Z,71.51
2018-08-10T06:36:01.445Z,72.64
2018-08-10T06:38:29.950Z,71.66
2018-08-10T06:40:58.474Z,70.80
2018-08-10T06:43:27.053Z,71.89
2018-08-10T06:45:55.537Z,71.89
2018-08-10T06:48:24.095Z,70.91
2018-08-10T06:50:52.730Z,71.42
2018-08-10T06:53:21.281Z,70.56
2018-08-10T06:55:50.079Z,70.31
2018-08-10T06:58:18.535Z,69.40
2018-08-10T07:00:47.211Z,69.46
2018-08-10T07:03:15.675Z,69.18
2018-08-10T07:05:44.181Z,69.42
2018-08-10T07:08:12.793Z,68.66
2018-08-10T07:10:45.586Z,69.37
2018-08-10T07:13:14.152Z,69.01
2018-08-10T07:15:42.732Z,69.03
2018-08-10T07:18:11.227Z,68.24
2018-08-10T07:20:39.812Z,68.15
2018-08-10T07:23:08.398Z,67.37
2018-08-10T07:25:37.169Z,66.72
2018-08-10T07:28:05.733Z,65.91
2018-08-10T07:30:34.326Z,65.26
2018-08-10T07:33:03.025Z,66.54
2018-08-10T07:35:31.608Z,64.10
2018-08-10T07:38:00.218Z,64.69
2018-08-10T07:40:28.705Z,64.56
2018-08-10T07:42:57.233Z,64.33
2018-08-10T07:45:25.725Z,63.16
2018-08-10T07:47:54.609Z,62.51
2018-08-10T07:50:23.093Z,63.13
2018-08-10T07:52:51.601Z,62.75
2018-08-10T07:55:20.115Z,62.97
2018-08-10T07:57:48.616Z,62.03
2018-08-10T08:00:17.207Z,62.79
2018-08-10T08:02:45.713Z,61.69
2018-08-10T08:05:14.267Z,61.00
2018-08-10T08:07:42.808Z,61.79
2018-08-10T08:10:11.387Z,61.12
2018-08-10T08:12:39.894Z,59.80
2018-08-10T08:15:08.679Z,58.77
2018-08-10T08:17:37.612Z,59.80
2018-08-10T08:20:06.804Z,58.43
2018-08-10T08:22:35.385Z,58.65
2018-08-10T08:25:03.923Z,59.00
2018-08-10T08:27:32.517Z,57.82
2018-08-10T08:30:01.008Z,58.32
2018-08-10T08:32:29.620Z,59.15
2018-08-10T08:34:58.248Z,58.09
2018-08-10T08:37:26.729Z,57.61
2018-08-10T08:40:06.621Z,56.25
2018-08-10T08:42:35.138Z,55.95
2018-08-10T08:46:10.992Z,56.44
2018-08-10T08:48:41.605Z,55.65
2018-08-10T08:51:18.947Z,55.44
2018-08-10T08:53:47.601Z,54.21
2018-08-10T08:56:19.434Z,54.98
2018-08-10T08:58:49.336Z,55.59
2018-08-10T09:01:18.109Z,55.98
2018-08-10T09:04:57.749Z,54.31
2018-08-10T09:07:27.264Z,55.02
2018-08-10T09:09:56.058Z,54.72
2018-08-10T09:12:24.652Z,55.08
2018-08-10T09:15:07.158Z,55.22
2018-08-10T09:17:35.772Z,55.33
2018-08-10T09:20:05.178Z,53.51
2018-08-10T09:22:33.748Z,53.88
2018-08-10T09:25:02.393Z,53.04
2018-08-10T09:27:30.946Z,53.40
2018-08-10T09:29:59.476Z,51.73
2018-08-10T09:32:28.003Z,51.61
2018-08-10T09:34:56.512Z,50.96
2018-08-10T09:37:25.097Z,51.69
2018-08-10T09:39:53.584Z,50.29
2018-08-10T09:42:22.257Z,49.92
2018-08-10T09:44:50.788Z,49.16
2018-08-10T09:47:19.304Z,49.04
2018-08-10T09:49:49.056Z,48.68
2018-08-10T09:52:17.597Z,47.02
2018-08-10T09:55:36.942Z,46.05
2018-08-10T09:58:09.477Z,46.67
2018-08-10T10:00:43.506Z,46.63
2018-08-10T10:03:17.719Z,49.05
2018-08-10T10:05:47.411Z,49.80
2018-08-10T10:08:16.249Z,46.26
2018-08-10T10:10:44.794Z,47.47
2018-08-10T10:13:13.447Z,48.37
2018-08-10T10:15:42.387Z,45.43
2018-08-10T10:18:12.151Z,45.70
2018-08-10T10:20:41.102Z,44.32
2018-08-10T10:23:09.721Z,45.20
2018-08-10T10:25:38.241Z,45.52
2018-08-10T10:28:06.981Z,46.21
2018-08-10T10:30:35.620Z,43.88
2018-08-10T10:33:04.333Z,43.16
2018-08-10T10:35:32.861Z,43.03
2018-08-10T10:38:01.469Z,43.25
2018-08-10T10:40:29.990Z,45.21
2018-08-10T10:42:58.538Z,42.93
2018-08-10T10:45:27.037Z,41.51
2018-08-10T10:47:55.603Z,42.39
2018-08-10T10:50:53.913Z,42.75
2018-08-10T10:53:22.536Z,42.36
2018-08-10T10:55:51.062Z,43.15
2018-08-10T10:58:21.559Z,43.01
2018-08-10T11:00:50.241Z,42.74
2018-08-10T11:03:18.806Z,41.06
2018-08-10T11:05:47.437Z,40.80
2018-08-10T11:08:16.022Z,40.02
2018-08-10T11:10:44.558Z,39.66
2018-08-10T11:13:13.112Z,40.97
2018-08-10T11:15:41.639Z,40.42
2018-08-10T11:18:10.240Z,40.54
2018-08-10T11:20:38.748Z,41.56
2018-08-10T11:23:07.640Z,39.54
2018-08-10T11:25:36.382Z,39.71
2018-08-10T11:28:04.884Z,39.19
2018-08-10T11:30:33.592Z,39.74
2018-08-10T11:33:02.118Z,38.28
2018-08-10T11:35:30.702Z,39.12
2018-08-10T11:37:59.222Z,39.55
2018-08-10T11:40:27.771Z,38.98
2018-08-10T11:42:56.307Z,40.22
2018-08-10T11:45:24.928Z,38.92
2018-08-10T11:47:53.717Z,40.12
2018-08-10T11:50:22.327Z,40.55
2018-08-10T11:52:50.915Z,40.88
2018-08-10T11:55:19.429Z,40.65
2018-08-10T11:57:47.963Z,39.33
2018-08-10T12:00:16.826Z,39.56
2018-08-10T12:02:45.401Z,39.35
2018-08-10T12:05:14.540Z,38.63
2018-08-10T12:07:43.204Z,38.74
2018-08-10T12:10:11.777Z,37.24
2018-08-10T12:12:40.357Z,37.94
2018-08-10T12:15:11.065Z,35.84
2018-08-10T12:17:39.832Z,36.60
2018-08-10T12:20:08.795Z,37.03
2018-08-10T12:22:37.499Z,36.90
2018-08-10T12:25:06.260Z,34.98
2018-08-10T12:27:34.954Z,37.09
2018-08-10T12:30:04.602Z,37.88
2018-08-10T12:32:33.223Z,36.39
2018-08-10T12:35:01.748Z,37.43
2018-08-10T12:37:30.244Z,36.87
2018-08-10T12:39:58.774Z,36.59
2018-08-10T12:42:27.344Z,37.98
2018-08-10T12:44:55.836Z,38.96
2018-08-10T12:47:24.449Z,38.05
2018-08-10T12:49:53.032Z,38.00
2018-08-10T12:52:21.596Z,38.52
2018-08-10T12:54:50.136Z,37.82
2018-08-10T12:57:18.648Z,38.63
2018-08-10T12:59:47.324Z,39.67
2018-08-10T13:02:15.868Z,39.68
2018-08-10T13:04:44.558Z,40.93
2018-08-10T13:07:13.311Z,39.97
2018-08-10T13:09:41.851Z,39.65
2018-08-10T13:12:10.467Z,39.93
2018-08-10T13:14:39.007Z,39.45
2018-08-10T13:17:07.626Z,38.20
2018-08-10T13:19:36.125Z,36.32
2018-08-10T13:22:04.765Z,36.99
2018-08-10T13:24:33.319Z,35.63
2018-08-10T13:27:01.913Z,33.18
2018-08-10T13:29:30.534Z,33.53
2018-08-10T13:31:59.200Z,34.38
2018-08-10T13:34:27.799Z,34.49
2018-08-10T13:36:56.295Z,34.33
2018-08-10T13:39:24.831Z,34.38
2018-08-10T13:41:53.320Z,34.96
2018-08-10T13:44:21.964Z,35.40
2018-08-10T13:46:50.542Z,36.37
2018-08-10T13:49:19.120Z,35.74
2018-08-10T13:51:47.666Z,36.91
2018-08-10T13:54:16.221Z,37.18
2018-08-10T13:56:44.828Z,34.97
2018-08-10T13:59:13.346Z,34.17
2018-08-10T14:01:41.852Z,34.86
2018-08-10T14:04:10.715Z,36.03
2018-08-10T14:06:39.272Z,37.17
2018-08-10T14:09:09.688Z,38.20
2018-08-10T14:11:38.281Z,37.32
2018-08-10T14:14:06.792Z,35.99
2018-08-10T14:16:35.397Z,34.65
2018-08-10T14:19:04.053Z,31.38
2018-08-10T14:21:32.788Z,31.28
2018-08-10T14:24:01.534Z,31.03
2018-08-10T14:26:30.130Z,30.38
2018-08-10T14:28:58.648Z,29.16
2018-08-10T14:31:27.201Z,29.60
2018-08-10T14:33:55.756Z,28.49
2018-08-10T14:36:24.264Z,27.12
2018-08-10T14:38:52.999Z,28.94
2018-08-10T14:41:21.727Z,29.00
2018-08-10T14:43:50.334Z,32.34
2018-08-10T14:46:19.020Z,30.49
2018-08-10T14:48:47.728Z,32.01
2018-08-10T14:51:16.264Z,34.68
2018-08-10T14:53:45.206Z,35.13
2018-08-10T14:56:13.734Z,36.74
2018-08-10T14:58:45.454Z,36.46
2018-08-10T15:01:14.051Z,37.19
2018-08-10T15:03:42.930Z,36.78
2018-08-10T15:06:11.481Z,37.59
2018-08-10T15:08:40.058Z,37.57
2018-08-10T15:11:08.721Z,40.22
2018-08-10T15:13:37.253Z,46.06
2018-08-10T15:16:05.951Z,50.67
2018-08-10T15:18:34.980Z,53.60
2018-08-10T15:21:05.712Z,51.08
2018-08-10T15:23:34.377Z,47.16
2018-08-10T15:26:02.928Z,44.04
2018-08-10T15:28:31.516Z,42.63
2018-08-10T15:31:00.095Z,40.76
2018-08-10T15:33:28.687Z,35.89
2018-08-10T15:35:57.264Z,38.01
2018-08-10T15:38:25.836Z,36.51
2018-08-10T15:40:54.352Z,35.77
2018-08-10T15:43:23.035Z,35.22
2018-08-10T15:45:51.918Z,33.74
2018-08-10T15:48:20.405Z,31.21
2018-08-10T15:50:48.966Z,33.26
2018-08-10T15:53:17.599Z,32.85
2018-08-10T15:55:46.232Z,36.83
2018-08-10T15:58:14.903Z,34.66
2018-08-10T16:00:43.476Z,35.34
2018-08-10T16:03:12.106Z,33.37
2018-08-10T16:05:40.706Z,32.52
2018-08-10T16:08:09.284Z,30.43
2018-08-10T16:10:38.423Z,30.77
2018-08-10T16:13:07.085Z,32.35
2018-08-10T16:15:35.660Z,34.13
2018-08-10T16:18:04.312Z,35.63
2018-08-10T16:20:32.939Z,37.44
2018-08-10T16:23:01.494Z,39.09
2018-08-10T16:25:30.100Z,39.19
2018-08-10T16:27:58.740Z,39.10
2018-08-10T16:30:27.277Z,38.37
2018-08-10T16:32:55.852Z,37.93
2018-08-10T16:35:24.376Z,39.25
2018-08-10T16:37:53.056Z,36.94
2018-08-10T16:40:21.684Z,36.38
2018-08-10T16:42:50.278Z,36.23
2018-08-10T16:45:18.892Z,37.21
2018-08-10T16:47:47.459Z,35.31
2018-08-10T16:50:17.652Z,33.19
2018-08-10T16:52:46.445Z,30.81
2018-08-10T16:55:17.389Z,31.40
2018-08-10T16:57:46.600Z,28.12
2018-08-10T17:00:20.832Z,28.09
2018-08-10T17:02:49.597Z,28.45
2018-08-10T17:05:18.238Z,30.97
2018-08-10T17:07:46.812Z,31.43
2018-08-10T17:10:15.407Z,32.39
2018-08-10T17:12:45.083Z,34.09
2018-08-10T17:15:15.184Z,33.64
2018-08-10T17:17:44.508Z,30.89
2018-08-10T17:20:13.485Z,30.67
2018-08-10T17:22:42.676Z,28.73
2018-08-10T17:25:12.454Z,29.73
2018-08-10T17:27:41.136Z,28.48
2018-08-10T17:30:11.887Z,28.59
2018-08-10T17:32:40.635Z,29.85
2018-08-10T17:35:10.912Z,28.13
2018-08-10T17:37:39.721Z,27.57
2018-08-10T17:40:09.071Z,28.41
2018-08-10T17:42:38.358Z,26.95
2018-08-10T17:45:09.424Z,26.74
2018-08-10T17:47:38.205Z,27.13
2018-08-10T17:50:11.812Z,27.99
2018-08-10T17:52:42.601Z,26.52
2018-08-10T17:55:11.603Z,27.65
2018-08-10T17:57:40.175Z,28.72
2018-08-10T18:00:11.152Z,29.95
2018-08-10T18:02:39.727Z,29.04
2018-08-10T18:05:10.426Z,31.29
2018-08-10T18:07:39.092Z,32.75
2018-08-10T18:10:08.185Z,34.31
2018-08-10T18:12:37.281Z,35.79
2018-08-10T18:15:07.500Z,36.02
2018-08-10T18:17:36.653Z,37.91
2018-08-10T18:20:07.631Z,36.77
2018-08-10T18:22:36.258Z,37.49
2018-08-10T18:25:05.286Z,38.51
2018-08-10T18:27:33.887Z,39.17
2018-08-10T18:30:02.510Z,39.08
2018-08-10T18:32:31.201Z,39.20
2018-08-10T18:34:59.762Z,39.11
2018-08-10T18:37:28.344Z,40.11
2018-08-10T18:39:56.951Z,39.71
2018-08-10T18:42:25.510Z,39.63
2018-08-10T18:44:54.025Z,41.52
2018-08-10T18:47:22.737Z,41.02
2018-08-10T18:49:51.265Z,41.47
2018-08-10T18:52:19.907Z,41.46
2018-08-10T18:54:48.503Z,41.66
2018-08-10T18:57:17.092Z,41.89
2018-08-10T18:59:45.938Z,41.86
2018-08-10T19:02:14.537Z,42.98
2018-08-10T19:04:43.082Z,43.30
2018-08-10T19:07:12.172Z,44.01
2018-08-10T19:09:40.798Z,44.87
2018-08-10T19:12:09.484Z,44.86
2018-08-10T19:14:38.135Z,44.87
2018-08-10T19:17:06.719Z,45.13
2018-08-10T19:19:35.288Z,44.46
2018-08-10T19:22:04.013Z,44.27
2018-08-10T19:24:32.898Z,44.23
2018-08-10T19:27:01.516Z,45.83
2018-08-10T19:29:30.171Z,45.48
2018-08-10T19:31:58.841Z,45.96
2018-08-10T19:34:27.367Z,45.81
2018-08-10T19:36:56.162Z,44.93
2018-08-10T19:39:24.706Z,44.87
2018-08-10T19:41:53.275Z,44.74
2018-08-10T19:44:21.825Z,44.91
2018-08-10T19:46:50.458Z,45.71
2018-08-10T19:49:18.988Z,44.83
2018-08-10T19:51:47.552Z,45.22
2018-08-10T19:54:16.120Z,44.93
2018-08-10T19:56:44.679Z,44.42
2018-08-10T19:59:13.254Z,44.84
2018-08-10T20:01:41.880Z,44.96
2018-08-10T20:04:10.464Z,45.16
2018-08-10T20:06:39.145Z,45.57
2018-08-10T20:09:10.956Z,44.63
2018-08-10T20:11:39.492Z,45.27
2018-08-10T20:14:08.530Z,44.89
2018-08-10T20:16:37.218Z,44.95
2018-08-10T20:19:05.843Z,44.57
2018-08-10T20:21:34.463Z,45.15
2018-08-10T20:24:03.315Z,44.32
2018-08-10T20:26:31.898Z,44.43
2018-08-10T20:29:00.617Z,44.09
2018-08-10T20:31:29.589Z,43.79
2018-08-10T20:33:58.159Z,44.10
2018-08-10T20:36:26.872Z,44.11
2018-08-10T20:38:55.474Z,44.72
2018-08-10T20:41:25.500Z,44.35
2018-08-10T20:43:54.120Z,43.53
2018-08-10T20:46:22.718Z,44.52
2018-08-10T20:48:51.269Z,45.25
2018-08-10T20:51:19.904Z,44.25
2018-08-10T20:53:48.446Z,45.03
2018-08-10T20:56:17.248Z,44.86
2018-08-10T20:58:45.869Z,44.73
2018-08-10T21:01:14.453Z,44.63
2018-08-10T21:03:43.383Z,44.11
2018-08-10T21:06:11.925Z,44.61
2018-08-10T21:08:40.650Z,44.58
2018-08-10T21:11:09.221Z,45.27
2018-08-10T21:13:37.711Z,44.82
2018-08-10T21:16:06.515Z,45.37
2018-08-10T21:18:35.090Z,45.50
2018-08-10T21:21:03.618Z,46.18
2018-08-10T21:23:32.289Z,45.81
2018-08-10T21:26:00.810Z,45.23
2018-08-10T21:28:29.340Z,46.49
2018-08-10T21:30:57.864Z,46.58
2018-08-10T21:33:26.431Z,46.19
2018-08-10T21:35:54.956Z,45.20
2018-08-10T21:38:23.518Z,45.67
2018-08-10T21:40:52.057Z,46.04
2018-08-10T21:43:20.602Z,45.73
2018-08-10T21:45:49.182Z,46.84
2018-08-10T21:48:17.756Z,46.97
2018-08-10T21:50:46.295Z,47.22
2018-08-10T21:53:14.827Z,47.43
2018-08-10T21:55:43.351Z,48.25
2018-08-10T21:58:11.880Z,47.75
2018-08-10T22:00:52.792Z,47.74
2018-08-10T22:03:23.271Z,47.62
2018-08-10T22:05:51.823Z,47.33
2018-08-10T22:08:21.578Z,47.60
2018-08-10T22:10:50.512Z,48.01
2018-08-10T22:13:24.483Z,48.14
2018-08-10T22:15:58.169Z,49.22
2018-08-10T22:18:32.044Z,49.01
2018-08-10T22:21:00.603Z,48.92
2018-08-10T22:23:29.893Z,49.73
2018-08-10T22:25:59.319Z,50.13
2018-08-10T22:28:28.181Z,49.92
2018-08-10T22:30:56.723Z,49.86
2018-08-10T22:33:25.327Z,49.72
2018-08-10T22:35:53.893Z,49.97
2018-08-10T22:38:22.478Z,50.48
2018-08-10T22:40:51.117Z,50.78
2018-08-10T22:43:19.743Z,50.51
2018-08-10T22:45:48.283Z,49.97
2018-08-10T22:48:16.805Z,51.08
2018-08-10T22:50:45.339Z,50.06
2018-08-10T22:53:14.121Z,51.09
2018-08-10T22:55:42.841Z,51.06
2018-08-10T22:58:11.316Z,52.93
2018-08-10T23:00:40.979Z,53.43
2018-08-10T23:03:09.516Z,54.19
2018-08-10T23:05:38.045Z,54.79
2018-08-10T23:08:06.654Z,55.74
2018-08-10T23:10:35.253Z,55.45
2018-08-10T23:13:03.863Z,57.56
2018-08-10T23:15:32.386Z,58.78
2018-08-10T23:18:00.934Z,60.49
2018-08-10T23:20:29.506Z,64.10
2018-08-10T23:22:58.014Z,66.69
2018-08-10T23:25:26.526Z,68.26
2018-08-10T23:27:55.133Z,68.78
2018-08-10T23:30:23.705Z,69.09
2018-08-10T23:32:52.237Z,67.59
2018-08-10T23:35:21.162Z,67.36
2018-08-10T23:37:49.680Z,66.96
2018-08-10T23:40:18.231Z,67.24
2018-08-10T23:42:46.734Z,68.82
2018-08-10T23:45:15.906Z,68.32
2018-08-10T23:47:45.565Z,68.58
2018-08-10T23:50:15.389Z,71.25
2018-08-10T23:52:44.550Z,75.98
2018-08-10T23:55:14.888Z,79.75
2018-08-10T23:57:43.456Z,80.80
